createdAt,value
2017-08-17T00:00:05.480Z,10.80
2017-08-17T00:02:33.052Z,10.87
2017-08-17T00:05:00.638Z,11.30
2017-08-17T00:07:28.203Z,11.07
2017-08-17T00:09:55.776Z,10.80
2017-08-17T00:12:23.446Z,10.67
2017-08-17T00:14:51.024Z,12.07
2017-08-17T00:17:18.567Z,12.57
2017-08-17T00:19:46.142Z,12.53
2017-08-17T00:22:13.711Z,13.87
2017-08-17T00:24:41.260Z,14.30
2017-08-17T00:27:08.828Z,14.53
2017-08-17T00:29:36.415Z,14.60
2017-08-17T00:32:03.986Z,13.60
2017-08-17T00:34:31.550Z,15.40
2017-08-17T00:36:59.097Z,13.77
2017-08-17T00:39:26.635Z,14.10
2017-08-17T00:41:55.198Z,13.50
2017-08-17T00:44:23.514Z,12.63
2017-08-17T00:46:51.099Z,12.43
2017-08-17T00:49:18.643Z,12.70
2017-08-17T00:51:46.212Z,13.90
2017-08-17T00:54:13.800Z,13.53
2017-08-17T00:56:41.349Z,13.40
2017-08-17T00:59:08.878Z,14.03
2017-08-17T01:01:36.428Z,14.27
2017-08-17T01:04:04.751Z,16.53
2017-08-17T01:06:32.341Z,14.50
2017-08-17T01:08:59.904Z,15.67
2017-08-17T01:11:28.308Z,14.53
2017-08-17T01:13:57.566Z,13.40
2017-08-17T01:16:25.159Z,14.97
2017-08-17T01:18:52.749Z,15.47
2017-08-17T01:21:21.073Z,14.97
2017-08-17T01:23:48.678Z,14.93
2017-08-17T01:26:16.226Z,16.40
2017-08-17T01:28:43.794Z,16.77
2017-08-17T01:31:11.352Z,17.50
2017-08-17T01:33:39.286Z,17.57
2017-08-17T01:36:06.831Z,17.73
2017-08-17T01:38:35.155Z,14.27
2017-08-17T01:41:02.733Z,14.50
2017-08-17T01:43:30.272Z,13.63
2017-08-17T01:45:57.831Z,12.47
2017-08-17T01:48:25.378Z,12.30
2017-08-17T01:50:52.953Z,12.30
2017-08-17T01:53:21.556Z,10.97
2017-08-17T01:55:49.093Z,13.03
2017-08-17T01:58:17.429Z,11.53
2017-08-17T02:00:45.015Z,12.03
2017-08-17T02:03:13.474Z,13.50
2017-08-17T02:05:41.073Z,13.47
2017-08-17T02:08:09.412Z,12.77
2017-08-17T02:10:36.982Z,11.70
2017-08-17T02:13:04.517Z,11.60
2017-08-17T02:15:32.052Z,11.57
2017-08-17T02:18:00.391Z,10.83
2017-08-17T02:20:27.921Z,10.57
2017-08-17T02:22:55.481Z,10.53
2017-08-17T02:25:23.002Z,9.63
2017-08-17T02:27:50.536Z,8.93
2017-08-17T02:30:18.099Z,9.20
2017-08-17T02:32:45.652Z,9.90
2017-08-17T02:35:13.189Z,8.47
2017-08-17T02:37:40.747Z,8.80
2017-08-17T02:40:08.310Z,9.13
2017-08-17T02:42:36.605Z,9.00
2017-08-17T02:45:04.995Z,9.37
2017-08-17T02:47:32.547Z,9.70
2017-08-17T02:50:00.836Z,8.80
2017-08-17T02:52:29.185Z,9.63
2017-08-17T02:54:56.732Z,9.40
2017-08-17T02:57:24.816Z,9.30
2017-08-17T02:59:52.366Z,9.70
2017-08-17T03:02:19.912Z,9.50
2017-08-17T03:04:47.461Z,9.90
2017-08-17T03:07:15.024Z,10.20
2017-08-17T03:09:42.577Z,8.73
2017-08-17T03:12:10.918Z,9.50
2017-08-17T03:14:38.472Z,7.63
2017-08-17T03:17:06.023Z,9.23
2017-08-17T03:19:33.574Z,8.70
2017-08-17T03:22:01.127Z,8.80
2017-08-17T03:24:28.679Z,9.10
2017-08-17T03:26:56.977Z,8.70
2017-08-17T03:29:24.553Z,7.90
2017-08-17T03:31:52.092Z,8.47
2017-08-17T03:34:19.645Z,8.27
2017-08-17T03:36:47.976Z,9.47
2017-08-17T03:39:15.537Z,8.90
2017-08-17T03:41:43.080Z,9.03
2017-08-17T03:44:10.649Z,8.63
2017-08-17T03:46:38.208Z,9.27
2017-08-17T03:49:05.753Z,10.70
2017-08-17T03:51:33.336Z,10.10
2017-08-17T03:54:00.890Z,10.07
2017-08-17T03:56:29.182Z,12.00
2017-08-17T03:58:56.743Z,13.00
2017-08-17T04:01:24.286Z,14.10
2017-08-17T04:03:51.857Z,12.23
2017-08-17T04:06:20.197Z,12.80
2017-08-17T04:08:47.751Z,14.97
2017-08-17T04:11:15.281Z,14.10
2017-08-17T04:13:42.850Z,14.40
2017-08-17T04:16:10.398Z,14.73
2017-08-17T04:18:37.948Z,14.30
2017-08-17T04:21:06.301Z,12.23
2017-08-17T04:23:33.866Z,12.07
2017-08-17T04:26:01.421Z,12.10
2017-08-17T04:28:28.990Z,11.43
2017-08-17T04:30:57.810Z,10.80
2017-08-17T04:33:26.119Z,10.80
2017-08-17T04:35:54.435Z,10.00
2017-08-17T04:38:22.016Z,10.20
2017-08-17T04:40:49.571Z,8.83
2017-08-17T04:43:17.129Z,9.70
2017-08-17T04:45:44.659Z,9.33
2017-08-17T04:48:12.962Z,10.47
2017-08-17T04:50:40.526Z,9.47
2017-08-17T04:53:08.042Z,8.17
2017-08-17T04:55:35.578Z,8.00
2017-08-17T04:58:21.138Z,9.00
2017-08-17T05:00:48.668Z,7.73
2017-08-17T05:03:16.953Z,7.20
2017-08-17T05:05:44.519Z,7.93
2017-08-17T05:08:12.080Z,7.07
2017-08-17T05:10:39.623Z,7.30
2017-08-17T05:13:07.151Z,7.00
2017-08-17T05:15:34.714Z,6.57
2017-08-17T05:18:02.259Z,6.97
2017-08-17T05:20:29.812Z,6.43
2017-08-17T05:22:58.450Z,7.60
2017-08-17T05:25:26.784Z,6.57
2017-08-17T05:27:54.351Z,7.33
2017-08-17T05:30:21.916Z,6.80
2017-08-17T05:32:49.476Z,6.50
2017-08-17T05:35:17.048Z,8.87
2017-08-17T05:37:44.579Z,6.73
2017-08-17T05:40:12.186Z,7.70
2017-08-17T05:42:39.767Z,7.10
2017-08-17T05:45:07.303Z,7.07
2017-08-17T05:47:34.835Z,6.60
2017-08-17T05:50:03.396Z,7.17
2017-08-17T05:52:30.917Z,7.00
2017-08-17T05:54:58.429Z,7.33
2017-08-17T05:57:25.963Z,8.00
2017-08-17T05:59:53.505Z,7.97
2017-08-17T06:02:21.113Z,8.23
2017-08-17T06:04:48.654Z,8.23
2017-08-17T06:07:16.198Z,7.70
2017-08-17T06:09:43.826Z,7.23
2017-08-17T06:12:11.360Z,7.50
2017-08-17T06:14:38.871Z,6.13
2017-08-17T06:17:07.203Z,7.47
2017-08-17T06:19:34.740Z,7.03
2017-08-17T06:22:02.275Z,6.63
2017-08-17T06:24:30.598Z,7.03
2017-08-17T06:26:58.183Z,9.13
2017-08-17T06:29:26.591Z,9.27
2017-08-17T06:31:55.153Z,9.47
2017-08-17T06:34:22.709Z,7.27
2017-08-17T06:36:50.244Z,8.20
2017-08-17T06:39:18.608Z,6.93
2017-08-17T06:41:46.923Z,7.80
2017-08-17T06:44:14.471Z,7.17
2017-08-17T06:46:42.054Z,8.57
2017-08-17T06:49:09.624Z,7.23
2017-08-17T06:51:37.206Z,7.13
2017-08-17T06:54:04.760Z,7.17
2017-08-17T06:56:32.313Z,7.00
2017-08-17T06:58:59.915Z,8.27
2017-08-17T07:01:27.506Z,7.33
2017-08-17T07:03:55.802Z,6.50
2017-08-17T07:06:24.134Z,7.50
2017-08-17T07:08:51.650Z,6.50
2017-08-17T07:11:19.967Z,7.33
2017-08-17T07:13:48.514Z,7.33
2017-08-17T07:16:16.849Z,7.80
2017-08-17T07:18:44.402Z,6.80
2017-08-17T07:21:11.999Z,6.87
2017-08-17T07:23:41.776Z,6.37
2017-08-17T07:26:09.344Z,7.10
2017-08-17T07:28:36.908Z,7.80
2017-08-17T07:31:04.450Z,6.53
2017-08-17T07:33:32.006Z,6.83
2017-08-17T07:36:00.315Z,7.40
2017-08-17T07:38:28.866Z,6.73
2017-08-17T07:40:57.199Z,6.57
2017-08-17T07:43:24.741Z,6.83
2017-08-17T07:45:52.295Z,6.83
2017-08-17T07:48:19.834Z,8.03
2017-08-17T07:50:48.282Z,7.50
2017-08-17T07:53:15.834Z,6.10
2017-08-17T07:55:43.396Z,6.37
2017-08-17T07:58:10.972Z,6.90
2017-08-17T08:00:38.519Z,6.90
2017-08-17T08:03:06.090Z,7.13
2017-08-17T08:05:33.644Z,8.17
2017-08-17T08:08:01.182Z,6.97
2017-08-17T08:10:29.546Z,6.80
2017-08-17T08:12:57.126Z,7.33
2017-08-17T08:15:25.397Z,7.83
2017-08-17T08:17:53.790Z,6.73
2017-08-17T08:20:22.784Z,9.20
2017-08-17T08:22:51.126Z,6.30
2017-08-17T08:25:18.647Z,6.77
2017-08-17T08:27:46.194Z,6.40
2017-08-17T08:30:14.556Z,6.03
2017-08-17T08:32:42.133Z,6.60
2017-08-17T08:35:10.474Z,7.50
2017-08-17T08:37:38.445Z,7.30
2017-08-17T08:40:05.985Z,7.20
2017-08-17T08:42:33.553Z,6.90
2017-08-17T08:45:01.121Z,7.50
2017-08-17T08:47:28.652Z,7.00
2017-08-17T08:49:56.976Z,7.20
2017-08-17T08:52:24.530Z,6.43
2017-08-17T08:54:52.075Z,5.70
2017-08-17T08:57:20.392Z,6.87
2017-08-17T08:59:47.967Z,5.70
2017-08-17T09:02:16.490Z,7.60
2017-08-17T09:04:44.052Z,7.50
2017-08-17T09:07:12.362Z,7.17
2017-08-17T09:09:39.956Z,7.10
2017-08-17T09:12:07.546Z,7.23
2017-08-17T09:14:35.087Z,7.00
2017-08-17T09:17:02.648Z,7.13
2017-08-17T09:19:30.187Z,6.80
2017-08-17T09:21:57.748Z,6.63
2017-08-17T09:24:25.307Z,7.20
2017-08-17T09:26:52.844Z,6.73
2017-08-17T09:29:20.396Z,7.10
2017-08-17T09:31:47.961Z,7.00
2017-08-17T09:34:15.527Z,7.10
2017-08-17T09:36:43.054Z,7.30
2017-08-17T09:39:11.578Z,6.60
2017-08-17T09:41:39.107Z,6.53
2017-08-17T09:44:06.670Z,6.00
2017-08-17T09:46:34.187Z,6.23
2017-08-17T09:49:02.487Z,6.67
2017-08-17T09:51:30.028Z,6.17
2017-08-17T09:53:57.541Z,6.63
2017-08-17T09:56:25.079Z,6.20
2017-08-17T09:58:52.645Z,6.30
2017-08-17T10:01:20.982Z,5.80
2017-08-17T10:03:48.523Z,5.70
2017-08-17T10:06:16.084Z,6.37
2017-08-17T10:08:43.655Z,5.97
2017-08-17T10:11:11.202Z,6.83
2017-08-17T10:13:38.733Z,6.37
2017-08-17T10:16:07.065Z,6.83
2017-08-17T10:18:34.908Z,5.90
2017-08-17T10:21:02.467Z,6.40
2017-08-17T10:23:30.044Z,5.43
2017-08-17T10:25:57.591Z,6.20
2017-08-17T10:28:25.133Z,5.90
2017-08-17T10:30:52.741Z,6.00
2017-08-17T10:33:20.325Z,5.87
2017-08-17T10:35:47.890Z,5.93
2017-08-17T10:38:15.443Z,5.90
2017-08-17T10:40:43.033Z,6.30
2017-08-17T10:43:10.583Z,5.70
2017-08-17T10:45:38.128Z,6.43
2017-08-17T10:48:05.708Z,5.63
2017-08-17T10:50:33.248Z,6.77
2017-08-17T10:53:00.799Z,5.80
2017-08-17T10:55:29.091Z,6.27
2017-08-17T10:57:56.676Z,5.90
2017-08-17T11:00:24.203Z,7.30
2017-08-17T11:02:52.494Z,5.60
2017-08-17T11:05:20.105Z,6.67
2017-08-17T11:07:47.657Z,5.80
2017-08-17T11:10:15.253Z,6.33
2017-08-17T11:12:42.811Z,6.13
2017-08-17T11:15:10.386Z,5.70
2017-08-17T11:17:38.691Z,5.80
2017-08-17T11:20:06.986Z,5.70
2017-08-17T11:22:34.550Z,5.17
2017-08-17T11:25:02.118Z,6.20
2017-08-17T11:27:29.704Z,6.30
2017-08-17T11:29:57.249Z,6.20
2017-08-17T11:32:24.771Z,6.13
2017-08-17T11:34:52.309Z,6.00
2017-08-17T11:37:19.916Z,6.27
2017-08-17T11:39:48.219Z,6.80
2017-08-17T11:42:15.760Z,5.50
2017-08-17T11:44:43.320Z,5.33
2017-08-17T11:47:10.859Z,6.20
2017-08-17T11:49:38.411Z,6.10
2017-08-17T11:52:05.975Z,6.47
2017-08-17T11:54:33.509Z,5.50
2017-08-17T11:57:01.058Z,5.53
2017-08-17T11:59:29.389Z,6.20
2017-08-17T12:01:56.925Z,6.70
2017-08-17T12:04:24.432Z,6.03
2017-08-17T12:06:52.003Z,6.53
2017-08-17T12:09:20.901Z,6.57
2017-08-17T12:11:48.421Z,5.93
2017-08-17T12:14:15.961Z,6.70
2017-08-17T12:16:43.539Z,6.53
2017-08-17T12:19:11.090Z,6.63
2017-08-17T12:21:38.664Z,6.83
2017-08-17T12:24:06.186Z,7.47
2017-08-17T12:26:33.733Z,7.57
2017-08-17T12:29:01.251Z,7.10
2017-08-17T12:31:28.793Z,7.27
2017-08-17T12:33:57.219Z,7.63
2017-08-17T12:36:24.774Z,6.70
2017-08-17T12:38:52.328Z,7.33
2017-08-17T12:41:19.866Z,7.23
2017-08-17T12:43:48.215Z,7.60
2017-08-17T12:46:15.765Z,7.87
2017-08-17T12:48:43.320Z,8.07
2017-08-17T12:51:10.878Z,7.27
2017-08-17T12:53:38.414Z,7.10
2017-08-17T12:56:06.701Z,7.03
2017-08-17T12:58:34.291Z,7.57
2017-08-17T13:01:01.841Z,6.90
2017-08-17T13:03:29.849Z,7.83
2017-08-17T13:05:57.536Z,7.80
2017-08-17T13:08:25.110Z,7.20
2017-08-17T13:10:52.640Z,6.90
2017-08-17T13:13:20.192Z,6.93
2017-08-17T13:15:47.752Z,6.57
2017-08-17T13:18:15.328Z,6.77
2017-08-17T13:20:42.883Z,6.90
2017-08-17T13:23:10.463Z,6.53
2017-08-17T13:25:38.059Z,6.93
2017-08-17T13:28:05.618Z,7.23
2017-08-17T13:30:33.186Z,7.00
2017-08-17T13:33:01.511Z,6.47
2017-08-17T13:35:29.033Z,6.53
2017-08-17T13:37:56.611Z,7.00
2017-08-17T13:40:24.122Z,6.70
2017-08-17T13:42:51.669Z,7.67
2017-08-17T13:45:19.208Z,7.13
2017-08-17T13:47:46.743Z,7.70
2017-08-17T13:50:14.313Z,8.17
2017-08-17T13:52:41.838Z,6.83
2017-08-17T13:55:09.381Z,6.70
2017-08-17T13:57:36.950Z,6.23
2017-08-17T14:00:04.493Z,6.80
2017-08-17T14:02:32.820Z,6.83
2017-08-17T14:05:00.347Z,7.10
2017-08-17T14:07:27.907Z,6.70
2017-08-17T14:09:55.508Z,6.10
2017-08-17T14:12:23.067Z,6.87
2017-08-17T14:14:50.600Z,6.60
2017-08-17T14:17:18.901Z,6.77
2017-08-17T14:19:46.453Z,6.83
2017-08-17T14:22:14.742Z,7.07
2017-08-17T14:24:42.293Z,6.77
2017-08-17T14:27:10.575Z,5.73
2017-08-17T14:29:38.915Z,6.47
2017-08-17T14:32:06.443Z,7.00
2017-08-17T14:34:34.002Z,6.57
2017-08-17T14:37:01.531Z,7.17
2017-08-17T14:39:29.434Z,6.70
2017-08-17T14:41:56.976Z,6.90
2017-08-17T14:44:24.515Z,7.17
2017-08-17T14:46:52.751Z,7.20
2017-08-17T14:49:20.346Z,7.60
2017-08-17T14:51:47.911Z,6.83
2017-08-17T14:54:15.495Z,7.10
2017-08-17T14:56:43.054Z,6.33
2017-08-17T14:59:10.583Z,7.10
2017-08-17T15:01:38.166Z,6.50
2017-08-17T15:04:05.707Z,6.73
2017-08-17T15:06:33.247Z,8.43
2017-08-17T15:09:02.805Z,7.77
2017-08-17T15:11:40.311Z,7.17
2017-08-17T15:14:08.087Z,7.50
2017-08-17T15:16:35.652Z,6.27
2017-08-17T15:19:03.191Z,7.40
2017-08-17T15:21:30.750Z,7.63
2017-08-17T15:23:58.308Z,5.93
2017-08-17T15:26:25.855Z,6.90
2017-08-17T15:28:53.423Z,6.73
2017-08-17T15:31:20.966Z,7.07
2017-08-17T15:33:49.290Z,6.37
2017-08-17T15:36:16.840Z,5.90
2017-08-17T15:38:44.378Z,6.53
2017-08-17T15:41:12.704Z,7.10
2017-08-17T15:43:40.261Z,7.30
2017-08-17T15:46:07.783Z,7.10
2017-08-17T15:48:35.331Z,7.90
2017-08-17T15:51:02.889Z,7.10
2017-08-17T15:53:30.445Z,6.60
2017-08-17T15:55:58.002Z,6.83
2017-08-17T15:58:25.568Z,6.03
2017-08-17T16:00:53.089Z,7.00
2017-08-17T16:03:20.660Z,7.27
2017-08-17T16:05:48.203Z,6.83
2017-08-17T16:08:15.732Z,6.73
2017-08-17T16:10:43.311Z,6.77
2017-08-17T16:13:10.893Z,6.27
2017-08-17T16:15:38.446Z,7.20
2017-08-17T16:18:06.038Z,7.00
2017-08-17T16:20:34.606Z,7.70
2017-08-17T16:23:02.125Z,6.60
2017-08-17T16:25:29.948Z,7.10
2017-08-17T16:27:58.296Z,6.60
2017-08-17T16:30:26.811Z,7.80
2017-08-17T16:32:55.095Z,7.30
2017-08-17T16:35:23.442Z,6.90
2017-08-17T16:37:51.015Z,6.67
2017-08-17T16:40:18.535Z,6.60
2017-08-17T16:42:46.095Z,6.70
2017-08-17T16:45:13.615Z,6.23
2017-08-17T16:47:41.212Z,6.37
2017-08-17T16:50:09.546Z,6.43
2017-08-17T16:52:37.117Z,6.50
2017-08-17T16:55:04.666Z,6.03
2017-08-17T16:57:33.007Z,6.47
2017-08-17T17:00:00.648Z,6.13
2017-08-17T17:02:28.983Z,6.50
2017-08-17T17:04:56.527Z,7.37
2017-08-17T17:07:24.818Z,6.80
2017-08-17T17:09:52.350Z,7.10
2017-08-17T17:12:20.713Z,7.20
2017-08-17T17:14:48.250Z,6.50
2017-08-17T17:17:15.803Z,6.23
2017-08-17T17:19:43.372Z,5.63
2017-08-17T17:22:11.603Z,6.17
2017-08-17T17:24:39.135Z,6.00
2017-08-17T17:27:07.697Z,6.87
2017-08-17T17:29:35.251Z,7.33
2017-08-17T17:32:02.802Z,6.90
2017-08-17T17:34:31.117Z,6.80
2017-08-17T17:36:58.676Z,6.33
2017-08-17T17:39:26.194Z,6.60
2017-08-17T17:41:54.972Z,6.00
2017-08-17T17:44:22.579Z,6.90
2017-08-17T17:46:51.094Z,6.43
2017-08-17T17:49:18.676Z,6.93
2017-08-17T17:51:46.199Z,7.47
2017-08-17T17:54:15.355Z,7.10
2017-08-17T17:56:43.139Z,6.30
2017-08-17T17:59:11.897Z,6.40
2017-08-17T18:01:39.424Z,6.70
2017-08-17T18:04:06.984Z,6.33
2017-08-17T18:06:34.516Z,6.70
2017-08-17T18:09:02.061Z,6.20
2017-08-17T18:11:29.649Z,6.83
2017-08-17T18:14:00.464Z,6.10
2017-08-17T18:16:28.078Z,6.30
2017-08-17T18:18:55.674Z,6.93
2017-08-17T18:21:23.221Z,5.90
2017-08-17T18:23:50.799Z,6.90
2017-08-17T18:26:18.390Z,6.53
2017-08-17T18:28:48.123Z,7.17
2017-08-17T18:31:16.752Z,6.60
2017-08-17T18:33:50.176Z,6.50
2017-08-17T18:36:21.421Z,7.50
2017-08-17T18:38:49.718Z,6.80
2017-08-17T18:41:19.407Z,7.40
2017-08-17T18:43:48.364Z,7.47
2017-08-17T18:46:23.805Z,7.30
2017-08-17T18:48:59.089Z,6.40
2017-08-17T18:51:27.354Z,6.20
2017-08-17T18:53:54.986Z,7.63
2017-08-17T18:56:23.300Z,8.17
2017-08-17T18:58:50.817Z,6.70
2017-08-17T19:01:18.413Z,7.00
2017-08-17T19:03:45.963Z,7.07
2017-08-17T19:06:15.207Z,7.13
2017-08-17T19:08:42.781Z,7.40
2017-08-17T19:11:10.330Z,7.00
2017-08-17T19:13:37.875Z,8.00
2017-08-17T19:16:05.448Z,7.90
2017-08-17T19:18:33.582Z,7.70
2017-08-17T19:21:01.304Z,7.03
2017-08-17T19:23:29.023Z,7.60
2017-08-17T19:25:57.906Z,7.57
2017-08-17T19:28:26.261Z,7.77
2017-08-17T19:30:55.731Z,8.70
2017-08-17T19:33:24.494Z,8.00
2017-08-17T19:35:52.074Z,9.00
2017-08-17T19:38:20.435Z,8.67
2017-08-17T19:40:48.156Z,9.23
2017-08-17T19:43:15.777Z,9.37
2017-08-17T19:45:43.840Z,10.20
2017-08-17T19:48:11.729Z,9.23
2017-08-17T19:50:40.143Z,9.50
2017-08-17T19:53:07.773Z,9.23
2017-08-17T19:55:35.309Z,10.67
2017-08-17T19:58:02.842Z,9.10
2017-08-17T20:00:30.500Z,10.40
2017-08-17T20:02:58.860Z,11.00
2017-08-17T20:05:27.933Z,10.50
2017-08-17T20:07:55.666Z,9.83
2017-08-17T20:10:23.644Z,10.10
2017-08-17T20:12:51.200Z,9.97
2017-08-17T20:15:18.818Z,11.07
2017-08-17T20:17:47.169Z,9.83
2017-08-17T20:20:14.740Z,10.60
2017-08-17T20:22:42.341Z,9.83
2017-08-17T20:25:09.918Z,10.70
2017-08-17T20:27:38.001Z,10.40
2017-08-17T20:30:06.325Z,9.80
2017-08-17T20:32:33.907Z,10.73
2017-08-17T20:35:01.528Z,10.93
2017-08-17T20:37:29.079Z,9.43
2017-08-17T20:39:57.376Z,9.80
2017-08-17T20:42:25.029Z,10.47
2017-08-17T20:44:53.324Z,9.70
2017-08-17T20:47:20.871Z,10.60
2017-08-17T20:49:48.483Z,10.67
2017-08-17T20:52:16.096Z,10.77
2017-08-17T20:54:44.568Z,10.60
2017-08-17T20:57:13.109Z,10.80
2017-08-17T20:59:41.827Z,11.50
2017-08-17T21:02:22.085Z,10.53
2017-08-17T21:04:50.466Z,10.00
2017-08-17T21:07:19.052Z,10.87
2017-08-17T21:09:47.591Z,10.50
2017-08-17T21:12:15.160Z,10.93
2017-08-17T21:14:42.765Z,10.70
2017-08-17T21:17:10.323Z,10.60
2017-08-17T21:19:37.978Z,10.20
2017-08-17T21:22:05.604Z,10.87
2017-08-17T21:24:34.107Z,11.50
2017-08-17T21:27:01.692Z,11.50
2017-08-17T21:29:30.090Z,11.63
2017-08-17T21:31:57.802Z,10.93
2017-08-17T21:34:25.379Z,10.30
2017-08-17T21:36:53.062Z,11.33
2017-08-17T21:39:20.647Z,13.40
2017-08-17T21:41:48.277Z,12.60
2017-08-17T21:44:16.602Z,11.90
2017-08-17T21:46:44.163Z,11.37
2017-08-17T21:49:11.757Z,11.10
2017-08-17T21:51:39.294Z,11.63
2017-08-17T21:54:06.839Z,11.20
2017-08-17T21:56:34.418Z,11.60
2017-08-17T21:59:01.979Z,11.60
2017-08-17T22:01:29.549Z,10.97
2017-08-17T22:03:57.148Z,11.30
2017-08-17T22:06:25.483Z,11.87
2017-08-17T22:08:53.158Z,13.03
2017-08-17T22:11:21.715Z,13.63
2017-08-17T22:13:49.281Z,13.13
2017-08-17T22:16:16.852Z,12.27
2017-08-17T22:18:44.433Z,11.80
2017-08-17T22:21:12.112Z,11.67
2017-08-17T22:23:39.673Z,11.80
2017-08-17T22:26:07.255Z,12.40
2017-08-17T22:28:34.905Z,12.70
2017-08-17T22:31:02.474Z,11.93
2017-08-17T22:33:30.040Z,12.40
2017-08-17T22:35:57.592Z,13.10
2017-08-17T22:38:25.146Z,11.80
2017-08-17T22:40:52.716Z,12.63
2017-08-17T22:43:20.271Z,12.70
2017-08-17T22:45:47.828Z,13.27
2017-08-17T22:48:15.449Z,14.90
2017-08-17T22:50:42.996Z,14.23
2017-08-17T22:53:10.532Z,14.17
2017-08-17T22:55:38.077Z,13.77
2017-08-17T22:58:06.397Z,14.30
2017-08-17T23:00:33.968Z,13.40
2017-08-17T23:03:02.542Z,13.00
2017-08-17T23:05:30.118Z,12.80
2017-08-17T23:07:57.659Z,13.23
2017-08-17T23:10:25.240Z,12.57
2017-08-17T23:12:52.798Z,13.30
2017-08-17T23:15:20.348Z,12.70
2017-08-17T23:17:47.956Z,12.33
2017-08-17T23:20:15.597Z,13.50
2017-08-17T23:22:43.145Z,13.73
2017-08-17T23:25:11.724Z,13.40
2017-08-17T23:27:39.281Z,14.10
2017-08-17T23:30:06.858Z,12.80
2017-08-17T23:32:34.481Z,12.90
2017-08-17T23:35:02.043Z,14.27
2017-08-17T23:37:29.581Z,13.23
2017-08-17T23:39:57.167Z,12.83
2017-08-17T23:42:24.731Z,12.03
2017-08-17T23:44:52.269Z,13.67
2017-08-17T23:47:19.916Z,12.57
2017-08-17T23:49:47.505Z,13.17
2017-08-17T23:52:15.111Z,13.23
2017-08-17T23:54:43.525Z,12.93
2017-08-17T23:57:11.137Z,12.63
2017-08-17T23:59:38.757Z,13.27
